createdAt,value
2023-02-17T00:01:34.852Z,1.00
2023-02-17T00:04:04.934Z,1.00
2023-02-17T00:06:33.064Z,1.00
2023-02-17T00:09:02.057Z,1.00
2023-02-17T00:11:30.289Z,1.00
2023-02-17T00:14:00.460Z,1.00
2023-02-17T00:16:29.436Z,1.00
2023-02-17T00:19:01.667Z,1.00
2023-02-17T00:21:31.871Z,1.00
2023-02-17T00:24:02.308Z,1.00
2023-02-17T00:26:30.006Z,1.00
2023-02-17T00:28:58.735Z,1.00
2023-02-17T00:31:26.451Z,1.00
2023-02-17T00:33:56.114Z,1.00
2023-02-17T00:36:24.164Z,1.00
2023-02-17T00:38:51.898Z,1.00
2023-02-17T00:41:20.183Z,1.00
2023-02-17T00:43:48.449Z,1.00
2023-02-17T00:46:18.005Z,1.00
2023-02-17T00:48:45.666Z,1.00
2023-02-17T00:51:13.214Z,1.00
2023-02-17T00:53:41.615Z,1.00
2023-02-17T00:56:09.628Z,1.00
2023-02-17T00:58:37.839Z,1.00
2023-02-17T01:01:06.591Z,1.00
2023-02-17T01:03:34.280Z,1.00
2023-02-17T01:06:09.732Z,1.00
2023-02-17T01:08:37.405Z,3.20
2023-02-17T01:11:04.852Z,4.80
2023-02-17T01:13:32.746Z,6.30
2023-02-17T01:16:00.248Z,7.40
2023-02-17T01:18:28.363Z,13.70
2023-02-17T01:20:55.868Z,16.70
2023-02-17T01:23:23.341Z,16.30
2023-02-17T01:25:50.951Z,13.90
2023-02-17T01:28:21.336Z,19.30
2023-02-17T01:30:49.818Z,19.70
2023-02-17T01:33:17.369Z,19.40
2023-02-17T01:35:44.765Z,18.90
2023-02-17T01:38:12.170Z,19.80
2023-02-17T01:40:49.886Z,19.40
2023-02-17T01:43:18.473Z,21.40
2023-02-17T01:46:07.777Z,17.80
2023-02-17T01:48:49.394Z,21.30
2023-02-17T01:51:28.844Z,14.90
2023-02-17T01:54:03.454Z,14.00
2023-02-17T01:56:33.776Z,9.80
2023-02-17T01:59:05.824Z,8.10
2023-02-17T02:01:33.739Z,7.30
2023-02-17T02:04:04.999Z,7.30
2023-02-17T02:06:35.044Z,8.60
2023-02-17T02:09:34.522Z,9.70
2023-02-17T02:12:02.354Z,10.80
2023-02-17T02:14:30.283Z,11.70
2023-02-17T02:17:16.514Z,10.40
2023-02-17T02:20:02.571Z,11.20
2023-02-17T02:22:42.183Z,10.00
2023-02-17T02:25:09.721Z,11.50
2023-02-17T02:28:10.242Z,14.20
2023-02-17T02:31:05.565Z,13.70
2023-02-17T02:33:38.245Z,15.90
2023-02-17T02:36:10.233Z,17.60
2023-02-17T02:38:40.349Z,20.40
2023-02-17T02:41:22.717Z,32.70
2023-02-17T02:43:50.444Z,42.90
2023-02-17T02:46:17.812Z,53.60
2023-02-17T02:48:45.959Z,68.80
2023-02-17T02:51:39.551Z,84.70
2023-02-17T02:54:25.035Z,91.50
2023-02-17T02:57:04.302Z,97.20
2023-02-17T03:00:07.002Z,99.90
2023-02-17T03:02:55.954Z,94.20
2023-02-17T03:05:49.843Z,94.30
2023-02-17T03:08:31.041Z,99.90
2023-02-17T03:10:58.744Z,99.90
2023-02-17T03:13:26.182Z,99.90
2023-02-17T03:15:53.844Z,99.90
2023-02-17T03:18:21.235Z,99.90
2023-02-17T03:20:57.290Z,99.90
2023-02-17T03:23:24.655Z,99.90
2023-02-17T03:25:52.149Z,99.90
2023-02-17T03:28:19.424Z,99.90
2023-02-17T03:30:46.792Z,99.90
2023-02-17T03:33:14.253Z,99.90
2023-02-17T03:35:41.619Z,99.90
2023-02-17T03:38:08.931Z,99.90
2023-02-17T03:40:36.254Z,99.90
2023-02-17T03:43:03.703Z,99.90
2023-02-17T03:45:31.223Z,99.90
2023-02-17T03:47:58.560Z,99.90
2023-02-17T03:50:26.014Z,99.90
2023-02-17T03:52:53.428Z,99.90
2023-02-17T03:55:20.925Z,99.90
2023-02-17T03:57:48.293Z,99.90
2023-02-17T04:00:16.067Z,99.90
2023-02-17T04:02:44.299Z,99.90
2023-02-17T04:05:12.064Z,99.90
2023-02-17T04:07:39.766Z,99.90
2023-02-17T04:10:09.536Z,99.90
2023-02-17T04:12:37.469Z,99.90
2023-02-17T04:15:05.514Z,99.90
2023-02-17T04:17:33.053Z,99.90
2023-02-17T04:20:00.555Z,99.90
2023-02-17T04:22:28.066Z,99.90
2023-02-17T04:24:55.730Z,99.90
2023-02-17T04:27:23.973Z,99.90
2023-02-17T04:29:52.125Z,99.90
2023-02-17T04:32:19.674Z,99.90
2023-02-17T04:34:47.146Z,99.90
2023-02-17T04:37:14.673Z,99.90
2023-02-17T04:39:42.216Z,99.90
2023-02-17T04:42:09.731Z,99.90
2023-02-17T04:44:37.193Z,99.90
2023-02-17T04:47:05.122Z,99.90
2023-02-17T04:49:32.795Z,99.90
2023-02-17T04:52:00.381Z,99.90
2023-02-17T04:54:27.839Z,99.90
2023-02-17T04:56:56.719Z,99.90
2023-02-17T04:59:25.607Z,99.90
2023-02-17T05:01:53.226Z,99.90
2023-02-17T05:04:21.036Z,99.90
2023-02-17T05:06:48.698Z,99.90
2023-02-17T05:09:16.486Z,99.90
2023-02-17T05:11:44.179Z,99.90
2023-02-17T05:14:11.987Z,99.90
2023-02-17T05:16:39.711Z,99.90
2023-02-17T05:19:07.254Z,99.90
2023-02-17T05:21:34.782Z,99.90
2023-02-17T05:24:02.484Z,99.90
2023-02-17T05:26:30.393Z,99.90
2023-02-17T05:28:57.893Z,99.90
2023-02-17T05:31:25.678Z,99.90
2023-02-17T05:33:55.612Z,99.90
2023-02-17T05:36:23.273Z,99.90
2023-02-17T05:38:51.857Z,99.90
2023-02-17T05:41:20.016Z,99.90
2023-02-17T05:43:48.181Z,99.90
2023-02-17T05:46:16.105Z,99.90
2023-02-17T05:48:44.510Z,99.90
2023-02-17T05:51:14.069Z,99.90
2023-02-17T05:53:41.575Z,99.90
2023-02-17T05:56:09.574Z,99.90
2023-02-17T05:58:37.315Z,99.90
2023-02-17T06:01:12.108Z,99.90
2023-02-17T06:03:40.161Z,99.90
2023-02-17T06:06:08.496Z,99.90
2023-02-17T06:08:36.937Z,99.90
2023-02-17T06:11:04.906Z,99.90
2023-02-17T06:13:35.751Z,99.90
2023-02-17T06:16:04.168Z,99.90
2023-02-17T06:18:33.075Z,99.90
2023-02-17T06:21:00.795Z,99.90
2023-02-17T06:23:28.837Z,99.90
2023-02-17T06:25:56.795Z,99.90
2023-02-17T06:28:24.416Z,99.90
2023-02-17T06:30:52.183Z,99.90
2023-02-17T06:33:19.790Z,99.90
2023-02-17T06:35:51.779Z,99.90
2023-02-17T06:38:19.713Z,99.90
2023-02-17T06:40:47.399Z,99.90
2023-02-17T06:43:14.943Z,99.90
2023-02-17T06:45:42.552Z,99.90
2023-02-17T06:48:10.935Z,99.90
2023-02-17T06:50:38.926Z,99.90
2023-02-17T06:53:06.486Z,99.90
2023-02-17T06:55:35.684Z,99.90
2023-02-17T06:58:03.506Z,99.90
2023-02-17T07:00:31.351Z,99.90
2023-02-17T07:02:59.076Z,99.90
2023-02-17T07:05:26.725Z,99.90
2023-02-17T07:07:56.209Z,99.90
2023-02-17T07:10:23.695Z,99.90
2023-02-17T07:12:52.019Z,99.90
2023-02-17T07:15:22.375Z,99.90
2023-02-17T07:17:50.446Z,99.90
2023-02-17T07:20:18.084Z,99.90
2023-02-17T07:22:45.801Z,99.90
2023-02-17T07:25:13.413Z,99.90
2023-02-17T07:27:40.960Z,99.90
2023-02-17T07:30:09.171Z,99.90
2023-02-17T07:32:36.916Z,99.90
2023-02-17T07:35:06.764Z,99.90
2023-02-17T07:37:37.546Z,99.90
2023-02-17T07:40:05.800Z,99.90
2023-02-17T07:42:33.341Z,99.90
2023-02-17T07:45:00.796Z,99.90
2023-02-17T07:47:28.293Z,98.90
2023-02-17T07:49:56.871Z,85.50
2023-02-17T07:52:24.367Z,76.50
2023-02-17T07:54:51.896Z,56.30
2023-02-17T07:57:19.843Z,51.10
2023-02-17T07:59:48.405Z,48.70
2023-02-17T08:02:16.161Z,50.70
2023-02-17T08:04:44.317Z,45.60
2023-02-17T08:07:11.924Z,36.50
2023-02-17T08:10:00.173Z,30.50
2023-02-17T08:12:46.442Z,31.50
2023-02-17T08:15:15.418Z,39.50
2023-02-17T08:17:44.559Z,36.80
2023-02-17T08:20:13.712Z,34.00
2023-02-17T08:22:41.502Z,29.00
2023-02-17T08:25:09.299Z,25.40
2023-02-17T08:27:37.389Z,21.60
2023-02-17T08:30:05.504Z,27.60
2023-02-17T08:32:33.114Z,25.70
2023-02-17T08:35:01.943Z,24.00
2023-02-17T08:37:33.032Z,20.20
2023-02-17T08:40:00.621Z,20.80
2023-02-17T08:42:28.621Z,19.50
2023-02-17T08:44:56.579Z,18.60
2023-02-17T08:47:24.711Z,17.90
2023-02-17T08:49:52.356Z,22.20
2023-02-17T08:52:19.893Z,20.70
2023-02-17T08:54:47.526Z,17.30
2023-02-17T08:57:15.166Z,16.50
2023-02-17T08:59:42.734Z,15.50
2023-02-17T09:02:11.586Z,12.90
2023-02-17T09:04:39.158Z,9.80
2023-02-17T09:07:10.812Z,4.40
2023-02-17T09:09:38.393Z,3.80
2023-02-17T09:12:06.317Z,1.10
2023-02-17T09:14:34.270Z,5.10
2023-02-17T09:17:01.961Z,10.20
2023-02-17T09:19:29.519Z,13.40
2023-02-17T09:21:57.220Z,12.00
2023-02-17T09:24:26.678Z,4.40
2023-02-17T09:26:54.469Z,3.30
2023-02-17T09:29:22.048Z,1.00
2023-02-17T09:31:49.691Z,1.00
2023-02-17T09:34:17.486Z,1.00
2023-02-17T09:36:45.565Z,1.00
2023-02-17T09:39:14.371Z,1.00
2023-02-17T09:41:50.394Z,1.00
2023-02-17T09:44:26.244Z,1.00
2023-02-17T09:47:02.492Z,1.00
2023-02-17T09:49:46.054Z,1.00
2023-02-17T09:52:32.280Z,1.20
2023-02-17T09:55:22.824Z,2.90
2023-02-17T09:57:58.011Z,2.80
2023-02-17T10:00:53.936Z,4.30
2023-02-17T10:03:41.037Z,2.30
2023-02-17T10:06:33.048Z,1.40
2023-02-17T10:09:33.542Z,4.50
2023-02-17T10:12:19.278Z,2.60
2023-02-17T10:14:52.126Z,1.00
2023-02-17T10:17:29.486Z,1.70
2023-02-17T10:20:17.058Z,3.10
2023-02-17T10:22:50.924Z,1.00
2023-02-17T10:25:42.659Z,1.50
2023-02-17T10:28:17.104Z,1.50
2023-02-17T10:31:12.806Z,1.00
2023-02-17T10:33:55.509Z,3.30
2023-02-17T10:36:43.187Z,1.00
2023-02-17T10:39:23.407Z,1.00
2023-02-17T10:41:52.162Z,1.00
2023-02-17T10:44:23.582Z,1.00
2023-02-17T10:46:53.851Z,1.00
2023-02-17T10:49:32.510Z,1.00
2023-02-17T10:52:10.325Z,1.00
2023-02-17T10:54:53.220Z,1.00
2023-02-17T10:57:26.139Z,1.00
2023-02-17T10:59:54.579Z,1.00
2023-02-17T11:02:33.730Z,1.40
2023-02-17T11:05:01.492Z,1.00
2023-02-17T11:07:42.148Z,1.90
2023-02-17T11:10:23.173Z,1.60
2023-02-17T11:12:51.167Z,3.80
2023-02-17T11:15:22.382Z,1.00
2023-02-17T11:17:50.915Z,1.00
2023-02-17T11:20:21.633Z,1.00
2023-02-17T11:23:15.572Z,1.00
2023-02-17T11:25:54.789Z,5.80
2023-02-17T11:28:24.229Z,1.00
2023-02-17T11:30:56.171Z,1.00
2023-02-17T11:33:31.606Z,1.00
2023-02-17T11:36:00.421Z,1.00
2023-02-17T11:38:41.250Z,1.00
2023-02-17T11:41:11.196Z,1.00
2023-02-17T11:43:40.195Z,1.00
2023-02-17T11:46:35.293Z,1.00
2023-02-17T11:49:38.849Z,1.00
2023-02-17T11:52:24.005Z,1.00
2023-02-17T11:55:15.756Z,1.00
2023-02-17T11:58:12.050Z,1.00
2023-02-17T12:01:01.257Z,1.00
2023-02-17T12:03:41.726Z,1.00
2023-02-17T12:06:21.886Z,1.00
2023-02-17T12:09:05.216Z,1.00
2023-02-17T12:11:55.729Z,1.00
2023-02-17T12:14:59.075Z,1.00
2023-02-17T12:17:37.121Z,1.00
2023-02-17T12:20:16.802Z,1.00
2023-02-17T12:23:13.447Z,1.00
2023-02-17T12:25:50.890Z,1.30
2023-02-17T12:28:49.038Z,1.30
2023-02-17T12:31:54.155Z,1.00
2023-02-17T12:34:42.250Z,1.00
2023-02-17T12:37:23.150Z,1.00
2023-02-17T12:40:04.251Z,1.00
2023-02-17T12:42:43.940Z,1.00
2023-02-17T12:45:14.282Z,3.10
2023-02-17T12:47:57.335Z,1.00
2023-02-17T12:50:24.642Z,1.00
2023-02-17T12:52:57.753Z,3.10
2023-02-17T12:55:48.606Z,6.60
2023-02-17T12:58:25.838Z,8.40
2023-02-17T13:01:14.272Z,5.60
2023-02-17T13:03:53.971Z,5.20
2023-02-17T13:06:32.445Z,4.60
2023-02-17T13:09:23.107Z,5.20
2023-02-17T13:11:50.873Z,6.50
2023-02-17T13:14:38.866Z,2.50
2023-02-17T13:17:06.402Z,2.10
2023-02-17T13:19:38.319Z,1.00
2023-02-17T13:22:06.006Z,1.00
2023-02-17T13:24:35.032Z,1.00
2023-02-17T13:27:34.410Z,1.00
2023-02-17T13:30:11.226Z,1.00
2023-02-17T13:32:40.092Z,1.00
2023-02-17T13:35:26.176Z,1.00
2023-02-17T13:37:54.217Z,1.00
2023-02-17T13:40:22.748Z,1.00
2023-02-17T13:43:10.399Z,1.10
2023-02-17T13:45:49.935Z,4.80
2023-02-17T13:48:24.009Z,5.40
2023-02-17T13:51:00.860Z,6.10
2023-02-17T13:53:41.969Z,7.00
2023-02-17T13:56:30.538Z,11.80
2023-02-17T13:59:18.574Z,10.90
2023-02-17T14:01:47.892Z,9.30
2023-02-17T14:04:30.676Z,6.70
2023-02-17T14:07:05.109Z,6.10
2023-02-17T14:09:35.000Z,4.80
2023-02-17T14:12:04.628Z,1.00
2023-02-17T14:14:35.268Z,1.00
2023-02-17T14:17:07.489Z,1.00
2023-02-17T14:19:49.196Z,1.00
2023-02-17T14:22:30.759Z,1.00
2023-02-17T14:24:59.402Z,1.00
2023-02-17T14:27:27.080Z,1.00
2023-02-17T14:29:54.731Z,1.00
2023-02-17T14:32:37.948Z,1.00
2023-02-17T14:35:09.899Z,1.00
2023-02-17T14:37:38.148Z,1.00
2023-02-17T14:40:24.746Z,1.00
2023-02-17T14:42:52.616Z,1.00
2023-02-17T14:45:20.341Z,1.00
2023-02-17T14:47:48.406Z,1.00
2023-02-17T14:50:19.232Z,1.00
2023-02-17T14:52:51.812Z,1.00
2023-02-17T14:55:36.860Z,1.00
2023-02-17T14:58:05.694Z,1.00
2023-02-17T15:00:33.235Z,1.00
2023-02-17T15:03:01.052Z,1.00
2023-02-17T15:05:29.950Z,1.00
2023-02-17T15:08:01.125Z,1.00
2023-02-17T15:10:30.090Z,1.00
2023-02-17T15:12:57.688Z,1.00
2023-02-17T15:15:28.682Z,1.00
2023-02-17T15:17:56.222Z,1.00
2023-02-17T15:20:24.792Z,1.00
2023-02-17T15:22:53.015Z,1.00
2023-02-17T15:25:24.545Z,1.00
2023-02-17T15:27:52.202Z,1.60
2023-02-17T15:30:21.357Z,1.00
2023-02-17T15:32:49.164Z,1.50
2023-02-17T15:35:23.185Z,3.00
2023-02-17T15:37:51.817Z,5.50
2023-02-17T15:40:25.066Z,7.50
2023-02-17T15:43:03.532Z,5.80
2023-02-17T15:45:31.778Z,6.70
2023-02-17T15:48:22.236Z,8.20
2023-02-17T15:50:49.859Z,5.80
2023-02-17T15:53:19.942Z,5.80
2023-02-17T15:55:48.278Z,6.60
2023-02-17T15:58:22.384Z,6.80
2023-02-17T16:00:52.324Z,7.30
2023-02-17T16:03:19.840Z,9.80
2023-02-17T16:05:48.143Z,11.20
2023-02-17T16:08:18.396Z,10.30
2023-02-17T16:10:47.345Z,9.70
2023-02-17T16:13:19.151Z,10.90
2023-02-17T16:15:49.134Z,10.30
2023-02-17T16:18:24.190Z,9.90
2023-02-17T16:20:52.317Z,11.80
2023-02-17T16:23:20.189Z,14.10
2023-02-17T16:25:48.883Z,13.60
2023-02-17T16:28:20.056Z,16.00
2023-02-17T16:30:49.783Z,17.50
2023-02-17T16:33:17.969Z,13.50
2023-02-17T16:35:45.920Z,13.40
2023-02-17T16:38:22.603Z,14.80
2023-02-17T16:40:52.978Z,15.90
2023-02-17T16:43:25.796Z,16.60
2023-02-17T16:45:55.753Z,18.20
2023-02-17T16:48:26.207Z,18.30
2023-02-17T16:50:54.367Z,20.00
2023-02-17T16:53:22.355Z,19.70
2023-02-17T16:55:55.632Z,19.50
2023-02-17T16:58:25.775Z,21.00
2023-02-17T17:00:55.193Z,21.90
2023-02-17T17:03:23.221Z,22.60
2023-02-17T17:05:52.865Z,22.70
2023-02-17T17:08:21.964Z,21.40
2023-02-17T17:10:50.016Z,21.50
2023-02-17T17:13:18.637Z,21.20
2023-02-17T17:15:47.361Z,22.70
2023-02-17T17:18:24.020Z,25.60
2023-02-17T17:20:51.666Z,22.90
2023-02-17T17:23:19.385Z,21.40
2023-02-17T17:25:47.497Z,19.60
2023-02-17T17:28:17.305Z,21.50
2023-02-17T17:30:46.012Z,21.30
2023-02-17T17:33:13.722Z,24.10
2023-02-17T17:35:41.644Z,23.20
2023-02-17T17:38:14.286Z,24.00
2023-02-17T17:40:50.829Z,27.10
2023-02-17T17:43:23.836Z,27.90
2023-02-17T17:45:52.374Z,31.80
2023-02-17T17:48:20.513Z,35.70
2023-02-17T17:50:49.494Z,38.40
2023-02-17T17:53:17.065Z,39.40
2023-02-17T17:55:44.735Z,43.50
2023-02-17T17:58:12.313Z,47.50
2023-02-17T18:00:39.872Z,50.40
2023-02-17T18:03:07.552Z,52.30
2023-02-17T18:05:36.778Z,54.60
2023-02-17T18:08:04.523Z,58.40
2023-02-17T18:10:32.573Z,61.40
2023-02-17T18:13:00.143Z,66.30
2023-02-17T18:15:27.998Z,68.00
2023-02-17T18:17:55.647Z,73.40
2023-02-17T18:20:23.250Z,80.00
2023-02-17T18:22:51.107Z,83.80
2023-02-17T18:25:19.272Z,86.50
2023-02-17T18:27:48.263Z,92.60
2023-02-17T18:30:19.107Z,93.50
2023-02-17T18:32:47.276Z,97.70
2023-02-17T18:35:15.688Z,96.20
2023-02-17T18:37:43.896Z,93.40
2023-02-17T18:40:14.238Z,93.90
2023-02-17T18:42:44.756Z,96.80
2023-02-17T18:45:13.297Z,98.10
2023-02-17T18:47:41.096Z,99.90
2023-02-17T18:50:09.793Z,99.90
2023-02-17T18:52:39.406Z,99.90
2023-02-17T18:55:10.013Z,99.90
2023-02-17T18:57:37.717Z,99.90
2023-02-17T19:00:09.432Z,99.90
2023-02-17T19:02:41.000Z,99.90
2023-02-17T19:05:11.064Z,99.90
2023-02-17T19:07:39.237Z,99.90
2023-02-17T19:10:07.390Z,99.90
2023-02-17T19:12:38.094Z,99.90
2023-02-17T19:15:06.761Z,99.90
2023-02-17T19:17:34.397Z,99.90
2023-02-17T19:20:02.027Z,99.90
2023-02-17T19:22:31.404Z,99.90
2023-02-17T19:24:59.342Z,99.90
2023-02-17T19:27:27.003Z,99.90
2023-02-17T19:29:54.589Z,99.90
2023-02-17T19:32:22.126Z,99.90
2023-02-17T19:34:49.676Z,99.90
2023-02-17T19:37:17.340Z,99.90
2023-02-17T19:39:45.765Z,99.90
2023-02-17T19:42:13.348Z,99.90
2023-02-17T19:44:40.830Z,99.90
2023-02-17T19:47:08.775Z,99.90
2023-02-17T19:49:36.511Z,99.90
2023-02-17T19:52:04.300Z,99.90
2023-02-17T19:54:31.889Z,99.90
2023-02-17T19:56:59.635Z,99.90
2023-02-17T19:59:27.150Z,99.90
2023-02-17T20:01:58.007Z,99.90
2023-02-17T20:04:25.703Z,99.90
2023-02-17T20:06:54.390Z,99.90
2023-02-17T20:09:23.270Z,99.90
2023-02-17T20:11:53.297Z,99.90
2023-02-17T20:14:21.897Z,99.90
2023-02-17T20:16:49.988Z,99.90
2023-02-17T20:19:17.663Z,99.90
2023-02-17T20:21:46.088Z,99.90
2023-02-17T20:24:14.367Z,99.90
2023-02-17T20:26:45.538Z,99.90
2023-02-17T20:29:14.029Z,99.90
2023-02-17T20:31:42.157Z,99.90
2023-02-17T20:34:29.283Z,99.90
2023-02-17T20:36:58.563Z,99.90
2023-02-17T20:39:26.336Z,99.90
2023-02-17T20:41:55.833Z,99.90
2023-02-17T20:44:28.842Z,99.90
2023-02-17T20:46:57.472Z,99.90
2023-02-17T20:49:25.714Z,99.90
2023-02-17T20:51:53.753Z,99.90
2023-02-17T20:54:25.763Z,99.90
2023-02-17T20:56:53.797Z,99.90
2023-02-17T20:59:21.571Z,99.90
2023-02-17T21:01:49.425Z,99.90
2023-02-17T21:04:17.118Z,99.90
2023-02-17T21:06:45.746Z,99.90
2023-02-17T21:09:15.858Z,99.90
2023-02-17T21:11:44.270Z,99.90
2023-02-17T21:14:12.062Z,99.90
2023-02-17T21:16:39.990Z,99.90
2023-02-17T21:19:07.537Z,99.90
2023-02-17T21:21:35.883Z,99.90
2023-02-17T21:24:03.729Z,99.90
2023-02-17T21:26:32.512Z,99.90
2023-02-17T21:29:00.017Z,99.90
2023-02-17T21:31:30.285Z,99.90
2023-02-17T21:34:01.018Z,99.90
2023-02-17T21:36:29.450Z,99.90
2023-02-17T21:38:57.539Z,99.90
2023-02-17T21:41:27.799Z,99.90
2023-02-17T21:44:14.087Z,99.90
2023-02-17T21:46:43.248Z,99.90
2023-02-17T21:49:13.659Z,99.90
2023-02-17T21:51:41.743Z,99.90
2023-02-17T21:54:10.229Z,99.90
2023-02-17T21:56:38.220Z,99.90
2023-02-17T21:59:06.457Z,99.90
2023-02-17T22:01:34.310Z,99.90
2023-02-17T22:04:03.225Z,99.90
2023-02-17T22:06:34.039Z,99.90
2023-02-17T22:09:02.132Z,99.90
2023-02-17T22:11:32.470Z,99.90
2023-02-17T22:14:02.293Z,99.90
2023-02-17T22:16:31.924Z,99.90
2023-02-17T22:19:00.365Z,99.90
2023-02-17T22:21:28.213Z,99.90
2023-02-17T22:23:57.271Z,99.90
2023-02-17T22:26:27.349Z,99.90
2023-02-17T22:28:55.300Z,99.90
2023-02-17T22:31:25.547Z,99.90
2023-02-17T22:33:53.556Z,99.90
2023-02-17T22:36:23.557Z,99.90
2023-02-17T22:38:52.625Z,99.90
2023-02-17T22:41:22.798Z,99.90
2023-02-17T22:43:51.767Z,99.90
2023-02-17T22:46:21.873Z,99.90
2023-02-17T22:48:51.574Z,99.90
2023-02-17T22:51:21.825Z,99.90
2023-02-17T22:53:49.767Z,99.90
2023-02-17T22:56:17.501Z,99.90
2023-02-17T22:58:45.111Z,99.90
2023-02-17T23:01:15.729Z,99.90
2023-02-17T23:03:44.434Z,99.90
2023-02-17T23:06:16.117Z,99.90
2023-02-17T23:08:43.956Z,99.90
2023-02-17T23:11:13.941Z,99.90
2023-02-17T23:13:41.964Z,99.90
2023-02-17T23:16:11.569Z,99.90
2023-02-17T23:18:39.107Z,99.90
2023-02-17T23:21:12.165Z,99.90
2023-02-17T23:23:40.036Z,99.90
2023-02-17T23:26:07.936Z,99.90
2023-02-17T23:28:36.950Z,99.90
2023-02-17T23:31:04.604Z,99.90
2023-02-17T23:33:32.202Z,99.90
2023-02-17T23:35:59.946Z,99.90
2023-02-17T23:38:27.461Z,99.90
2023-02-17T23:40:55.093Z,99.90
2023-02-17T23:43:25.966Z,99.90
2023-02-17T23:45:56.849Z,99.90
2023-02-17T23:48:24.426Z,99.90
2023-02-17T23:50:59.646Z,99.90
2023-02-17T23:53:27.865Z,99.90
2023-02-17T23:56:14.342Z,99.90
2023-02-17T23:58:43.610Z,99.90
